createdAt,value
2019-02-21T00:02:44.374Z,0.77
2019-02-21T00:05:49.512Z,0.76
2019-02-21T00:08:54.747Z,0.81
2019-02-21T00:11:59.929Z,0.80
2019-02-21T00:15:05.399Z,0.80
2019-02-21T00:18:11.608Z,0.86
2019-02-21T00:21:16.774Z,0.89
2019-02-21T00:24:21.937Z,0.91
2019-02-21T00:27:27.090Z,0.86
2019-02-21T00:30:35.307Z,0.96
2019-02-21T00:33:39.055Z,0.98
2019-02-21T00:36:44.214Z,0.97
2019-02-21T00:39:49.327Z,0.98
2019-02-21T00:42:54.481Z,0.86
2019-02-21T00:45:59.653Z,0.79
2019-02-21T00:49:04.791Z,0.89
2019-02-21T00:52:09.931Z,0.85
2019-02-21T00:55:15.051Z,0.82
2019-02-21T00:58:20.199Z,0.79
2019-02-21T01:01:25.533Z,0.65
2019-02-21T01:04:30.697Z,0.69
2019-02-21T01:07:36.932Z,0.60
2019-02-21T01:10:42.113Z,0.57
2019-02-21T01:13:47.423Z,0.59
2019-02-21T01:16:52.481Z,0.51
2019-02-21T01:19:57.650Z,0.49
2019-02-21T01:23:02.844Z,0.37
2019-02-21T01:26:08.083Z,0.28
2019-02-21T01:29:13.222Z,0.21
2019-02-21T01:32:18.352Z,0.28
2019-02-21T01:35:23.470Z,0.17
2019-02-21T01:38:28.661Z,0.06
2019-02-21T01:41:33.898Z,0.04
2019-02-21T01:44:39.116Z,0.03
2019-02-21T01:47:44.287Z,-0.07
2019-02-21T01:50:49.414Z,-0.09
2019-02-21T01:53:54.549Z,-0.05
2019-02-21T01:56:59.802Z,-0.17
2019-02-21T02:00:05.831Z,-0.28
2019-02-21T02:03:11.092Z,-0.33
2019-02-21T02:06:16.319Z,-0.24
2019-02-21T02:09:21.935Z,-0.19
2019-02-21T02:12:27.100Z,-0.17
2019-02-21T02:15:33.827Z,-0.33
2019-02-21T02:18:39.332Z,-0.46
2019-02-21T02:21:44.561Z,-0.59
2019-02-21T02:24:49.730Z,-0.60
2019-02-21T02:27:54.914Z,-0.62
2019-02-21T02:31:00.103Z,-0.57
2019-02-21T02:34:06.474Z,-0.50
2019-02-21T02:37:11.625Z,-0.56
2019-02-21T02:40:16.941Z,-0.61
2019-02-21T02:43:22.219Z,-0.73
2019-02-21T02:46:27.468Z,-0.73
2019-02-21T02:49:32.640Z,-0.76
2019-02-21T02:52:37.923Z,-0.90
2019-02-21T02:55:43.081Z,-0.86
2019-02-21T02:58:48.312Z,-0.97
2019-02-21T03:01:54.575Z,-0.92
2019-02-21T03:04:59.717Z,-0.81
2019-02-21T03:08:04.913Z,-0.87
2019-02-21T03:11:10.438Z,-0.83
2019-02-21T03:14:15.669Z,-0.79
2019-02-21T03:17:20.885Z,-0.63
2019-02-21T03:20:26.069Z,-0.55
2019-02-21T03:23:31.315Z,-0.53
2019-02-21T03:26:36.577Z,-0.55
2019-02-21T03:29:41.751Z,-0.64
2019-02-21T03:32:46.896Z,-0.63
2019-02-21T03:35:52.052Z,-0.63
2019-02-21T03:38:57.273Z,-0.67
2019-02-21T03:42:02.452Z,-0.81
2019-02-21T03:45:08.876Z,-0.84
2019-02-21T03:48:14.100Z,-1.00
2019-02-21T03:51:19.320Z,-1.11
2019-02-21T03:54:24.504Z,-1.08
2019-02-21T03:57:31.158Z,-1.16
2019-02-21T04:00:37.310Z,-1.09
2019-02-21T04:03:42.562Z,-0.87
2019-02-21T04:06:47.768Z,-0.74
2019-02-21T04:09:52.949Z,-0.63
2019-02-21T04:12:58.084Z,-0.47
2019-02-21T04:16:03.326Z,-0.37
2019-02-21T04:19:08.511Z,-0.19
2019-02-21T04:22:13.698Z,-0.13
2019-02-21T04:25:18.996Z,-0.08
2019-02-21T04:28:24.178Z,-0.02
2019-02-21T04:31:29.325Z,0.01
2019-02-21T04:34:34.448Z,0.39
2019-02-21T04:37:39.594Z,0.24
2019-02-21T04:40:44.814Z,0.31
2019-02-21T04:43:49.954Z,0.26
2019-02-21T04:46:55.258Z,0.30
2019-02-21T04:50:00.630Z,0.34
2019-02-21T04:53:06.091Z,0.36
2019-02-21T04:56:11.277Z,0.37
2019-02-21T04:59:16.392Z,0.35
2019-02-21T05:02:28.864Z,0.47
2019-02-21T05:05:28.516Z,0.38
2019-02-21T05:08:33.696Z,0.75
2019-02-21T05:11:38.796Z,0.65
2019-02-21T05:14:44.023Z,0.76
2019-02-21T05:17:49.186Z,0.55
2019-02-21T05:20:54.418Z,0.48
2019-02-21T05:23:59.555Z,0.58
2019-02-21T05:27:09.495Z,0.54
2019-02-21T05:30:18.589Z,0.58
2019-02-21T05:33:41.431Z,0.73
2019-02-21T05:37:02.727Z,0.68
2019-02-21T05:40:41.975Z,0.63
2019-02-21T05:43:58.643Z,0.68
2019-02-21T05:47:28.892Z,0.55
2019-02-21T05:50:56.070Z,0.65
2019-02-21T05:54:09.127Z,0.67
2019-02-21T05:57:23.818Z,0.58
2019-02-21T06:00:54.024Z,0.39
2019-02-21T06:04:04.738Z,0.24
2019-02-21T06:07:34.721Z,0.10
2019-02-21T06:10:51.568Z,-0.09
2019-02-21T06:14:14.380Z,-0.13
2019-02-21T06:17:41.301Z,-0.27
2019-02-21T06:21:08.459Z,-0.31
2019-02-21T06:24:35.336Z,-0.35
2019-02-21T06:27:54.841Z,-0.53
2019-02-21T06:31:03.119Z,-0.45
2019-02-21T06:34:08.257Z,-0.50
2019-02-21T06:37:13.416Z,-0.52
2019-02-21T06:40:18.587Z,-0.35
2019-02-21T06:43:23.744Z,-0.30
2019-02-21T06:46:28.968Z,-0.15
2019-02-21T06:49:34.086Z,-0.06
2019-02-21T06:52:40.690Z,0.10
2019-02-21T06:55:45.979Z,0.14
2019-02-21T06:58:51.116Z,0.27
2019-02-21T07:01:56.256Z,0.50
2019-02-21T07:05:01.377Z,0.43
2019-02-21T07:08:08.838Z,0.47
2019-02-21T07:11:14.162Z,0.63
2019-02-21T07:14:26.538Z,0.67
2019-02-21T07:17:32.648Z,0.64
2019-02-21T07:20:39.736Z,0.49
2019-02-21T07:23:44.711Z,0.54
2019-02-21T07:26:49.890Z,0.59
2019-02-21T07:29:55.349Z,0.75
2019-02-21T07:33:00.509Z,0.88
2019-02-21T07:36:05.782Z,1.14
2019-02-21T07:39:17.172Z,1.30
2019-02-21T07:42:17.747Z,1.27
2019-02-21T07:45:22.899Z,1.41
2019-02-21T07:48:27.989Z,1.63
2019-02-21T07:51:35.841Z,1.95
2019-02-21T07:54:39.984Z,1.81
2019-02-21T07:57:45.213Z,1.85
2019-02-21T08:00:50.394Z,1.68
2019-02-21T08:03:55.546Z,1.77
2019-02-21T08:07:00.689Z,2.02
2019-02-21T08:10:06.067Z,1.78
2019-02-21T08:13:11.250Z,1.72
2019-02-21T08:16:17.306Z,1.97
2019-02-21T08:19:22.390Z,1.98
2019-02-21T08:22:27.557Z,1.95
2019-02-21T08:25:32.666Z,2.06
2019-02-21T08:28:37.879Z,2.11
2019-02-21T08:31:43.104Z,2.12
2019-02-21T08:34:50.570Z,2.28
2019-02-21T08:37:55.709Z,2.44
2019-02-21T08:41:00.892Z,2.72
2019-02-21T08:44:06.053Z,2.99
2019-02-21T08:47:14.286Z,3.32
2019-02-21T08:50:22.101Z,3.74
2019-02-21T08:53:28.127Z,4.07
2019-02-21T08:56:33.187Z,4.61
2019-02-21T08:59:38.335Z,5.20
2019-02-21T09:02:43.458Z,4.90
2019-02-21T09:05:48.564Z,4.54
2019-02-21T09:08:53.844Z,5.42
2019-02-21T09:11:58.998Z,5.75
2019-02-21T09:15:09.562Z,5.47
2019-02-21T09:18:16.344Z,5.24
2019-02-21T09:21:21.455Z,4.94
2019-02-21T09:24:38.039Z,5.22
2019-02-21T09:27:34.489Z,5.49
2019-02-21T09:30:39.631Z,5.54
2019-02-21T09:33:45.857Z,6.08
2019-02-21T09:36:50.963Z,5.78
2019-02-21T09:39:56.097Z,5.98
2019-02-21T09:43:01.374Z,6.25
2019-02-21T09:46:06.725Z,6.64
2019-02-21T09:49:11.918Z,6.59
2019-02-21T09:52:17.099Z,6.64
2019-02-21T09:55:22.350Z,6.59
2019-02-21T09:58:27.472Z,6.76
2019-02-21T10:01:32.679Z,6.95
2019-02-21T10:04:38.095Z,6.87
2019-02-21T10:07:43.314Z,7.33
2019-02-21T10:10:48.403Z,7.18
2019-02-21T10:13:53.544Z,7.38
2019-02-21T10:16:58.703Z,6.99
2019-02-21T10:20:04.294Z,7.68
2019-02-21T10:23:09.722Z,8.19
2019-02-21T10:26:14.849Z,8.05
2019-02-21T10:29:20.471Z,7.72
2019-02-21T10:32:25.640Z,7.85
2019-02-21T10:35:30.857Z,7.61
2019-02-21T10:38:36.059Z,7.88
2019-02-21T10:41:41.223Z,7.81
2019-02-21T10:44:46.396Z,7.69
2019-02-21T10:47:51.538Z,7.97
2019-02-21T10:50:56.818Z,7.79
2019-02-21T10:54:02.110Z,8.22
2019-02-21T10:57:07.185Z,9.03
2019-02-21T11:00:21.357Z,8.34
2019-02-21T11:03:26.613Z,8.70
2019-02-21T11:06:31.852Z,8.71
2019-02-21T11:09:37.034Z,8.38
2019-02-21T11:12:42.247Z,8.64
2019-02-21T11:15:47.370Z,8.56
2019-02-21T11:18:52.492Z,8.43
2019-02-21T11:21:57.683Z,8.35
2019-02-21T11:25:02.856Z,8.85
2019-02-21T11:28:07.978Z,9.19
2019-02-21T11:31:13.065Z,9.12
2019-02-21T11:34:18.230Z,9.09
2019-02-21T11:37:23.417Z,9.01
2019-02-21T11:40:28.567Z,9.18
2019-02-21T11:43:34.723Z,8.87
2019-02-21T11:46:40.008Z,8.81
2019-02-21T11:49:45.236Z,8.94
2019-02-21T11:52:50.388Z,9.17
2019-02-21T11:55:55.532Z,9.47
2019-02-21T11:59:00.725Z,9.74
2019-02-21T12:02:05.904Z,9.83
2019-02-21T12:05:17.496Z,10.05
2019-02-21T12:08:18.157Z,10.27
2019-02-21T12:11:23.252Z,10.38
2019-02-21T12:14:28.442Z,10.50
2019-02-21T12:17:33.553Z,10.22
2019-02-21T12:20:38.712Z,10.50
2019-02-21T12:23:43.922Z,10.22
2019-02-21T12:26:49.157Z,10.23
2019-02-21T12:29:54.258Z,10.95
2019-02-21T12:32:59.431Z,11.34
2019-02-21T12:36:04.593Z,11.69
2019-02-21T12:39:09.751Z,12.05
2019-02-21T12:42:16.431Z,12.22
2019-02-21T12:45:21.703Z,12.41
2019-02-21T12:48:26.899Z,12.42
2019-02-21T12:51:32.050Z,12.82
2019-02-21T12:54:37.163Z,13.10
2019-02-21T12:57:42.340Z,13.21
2019-02-21T13:00:47.596Z,12.95
2019-02-21T13:03:52.750Z,12.69
2019-02-21T13:06:58.027Z,12.89
2019-02-21T13:10:03.220Z,13.05
2019-02-21T13:13:09.564Z,12.78
2019-02-21T13:16:14.724Z,12.91
2019-02-21T13:19:19.840Z,12.95
2019-02-21T13:22:24.958Z,12.53
2019-02-21T13:25:30.136Z,12.28
2019-02-21T13:28:35.369Z,12.12
2019-02-21T13:31:40.502Z,11.95
2019-02-21T13:34:45.682Z,12.19
2019-02-21T13:37:50.855Z,12.37
2019-02-21T13:40:56.002Z,12.75
2019-02-21T13:44:01.185Z,13.11
2019-02-21T13:47:06.520Z,13.21
2019-02-21T13:50:13.866Z,12.72
2019-02-21T13:53:19.016Z,12.92
2019-02-21T13:56:24.202Z,13.20
2019-02-21T13:59:29.455Z,12.85
2019-02-21T14:02:35.614Z,12.74
2019-02-21T14:05:40.808Z,12.57
2019-02-21T14:08:45.989Z,12.24
2019-02-21T14:11:51.177Z,12.54
2019-02-21T14:14:57.528Z,12.29
2019-02-21T14:18:02.808Z,12.36
2019-02-21T14:21:08.022Z,12.39
2019-02-21T14:24:13.260Z,12.22
2019-02-21T14:27:18.667Z,12.37
2019-02-21T14:30:23.812Z,12.35
2019-02-21T14:33:28.988Z,12.28
2019-02-21T14:36:34.130Z,12.19
2019-02-21T14:39:39.332Z,12.07
2019-02-21T14:42:44.472Z,12.73
2019-02-21T14:45:49.696Z,13.00
2019-02-21T14:48:54.875Z,13.00
2019-02-21T14:52:02.014Z,13.14
2019-02-21T14:55:08.597Z,13.24
2019-02-21T14:58:14.751Z,12.96
2019-02-21T15:01:19.904Z,12.78
2019-02-21T15:04:25.030Z,12.61
2019-02-21T15:07:30.201Z,12.60
2019-02-21T15:10:35.342Z,12.25
2019-02-21T15:13:40.533Z,12.44
2019-02-21T15:16:49.305Z,12.59
2019-02-21T15:19:56.123Z,12.36
2019-02-21T15:23:01.331Z,12.33
2019-02-21T15:26:06.645Z,12.41
2019-02-21T15:29:11.748Z,12.30
2019-02-21T15:32:17.020Z,12.37
2019-02-21T15:35:22.192Z,12.16
2019-02-21T15:38:27.359Z,12.25
2019-02-21T15:41:32.668Z,12.29
2019-02-21T15:44:37.809Z,11.96
2019-02-21T15:47:42.956Z,12.19
2019-02-21T15:50:48.110Z,12.31
2019-02-21T15:53:53.265Z,11.97
2019-02-21T15:56:58.482Z,11.84
2019-02-21T16:00:03.664Z,11.69
2019-02-21T16:03:10.167Z,12.05
2019-02-21T16:06:15.296Z,11.72
2019-02-21T16:09:20.533Z,11.69
2019-02-21T16:12:26.095Z,11.56
2019-02-21T16:15:31.375Z,11.50
2019-02-21T16:18:36.660Z,11.38
2019-02-21T16:21:41.910Z,11.28
2019-02-21T16:24:48.073Z,11.09
2019-02-21T16:27:55.226Z,11.15
2019-02-21T16:31:00.241Z,11.29
2019-02-21T16:34:05.385Z,11.01
2019-02-21T16:37:10.571Z,10.78
2019-02-21T16:40:15.733Z,10.55
2019-02-21T16:43:20.850Z,10.42
2019-02-21T16:46:26.016Z,10.43
2019-02-21T16:49:31.161Z,10.09
2019-02-21T16:52:36.898Z,10.08
2019-02-21T16:55:42.144Z,9.85
2019-02-21T16:58:47.374Z,9.69
2019-02-21T17:01:52.635Z,9.61
2019-02-21T17:04:57.866Z,9.59
2019-02-21T17:08:03.086Z,9.60
2019-02-21T17:11:08.296Z,9.58
2019-02-21T17:14:13.476Z,9.42
2019-02-21T17:17:19.946Z,9.39
2019-02-21T17:20:25.206Z,9.25
2019-02-21T17:23:30.347Z,9.17
2019-02-21T17:26:35.608Z,9.05
2019-02-21T17:29:40.813Z,8.95
2019-02-21T17:32:46.344Z,8.86
2019-02-21T17:35:51.521Z,8.79
2019-02-21T17:38:56.664Z,8.86
2019-02-21T17:42:02.578Z,8.92
2019-02-21T17:45:08.744Z,9.08
2019-02-21T17:48:13.975Z,9.04
2019-02-21T17:51:19.127Z,9.01
2019-02-21T17:54:25.937Z,8.95
2019-02-21T17:57:31.376Z,8.85
2019-02-21T18:00:37.538Z,8.77
2019-02-21T18:03:42.869Z,8.62
2019-02-21T18:06:48.107Z,8.51
2019-02-21T18:09:53.291Z,8.28
2019-02-21T18:12:58.460Z,8.34
2019-02-21T18:16:03.623Z,8.21
2019-02-21T18:19:08.804Z,8.29
2019-02-21T18:22:14.026Z,8.25
2019-02-21T18:25:23.087Z,8.23
2019-02-21T18:28:28.339Z,8.23
2019-02-21T18:31:32.728Z,8.19
2019-02-21T18:34:38.028Z,8.18
2019-02-21T18:37:47.323Z,7.99
2019-02-21T18:40:50.149Z,7.85
2019-02-21T18:43:55.757Z,7.70
2019-02-21T18:47:01.019Z,7.60
2019-02-21T18:50:06.700Z,7.31
2019-02-21T18:53:11.849Z,7.06
2019-02-21T18:56:17.117Z,6.91
2019-02-21T18:59:31.340Z,6.77
2019-02-21T19:02:29.126Z,6.65
2019-02-21T19:05:36.239Z,6.63
2019-02-21T19:08:41.215Z,6.81
2019-02-21T19:11:46.386Z,6.83
2019-02-21T19:14:51.718Z,6.89
2019-02-21T19:17:56.866Z,6.70
2019-02-21T19:21:02.100Z,6.60
2019-02-21T19:24:07.259Z,6.53
2019-02-21T19:27:12.445Z,6.42
2019-02-21T19:30:20.897Z,6.32
2019-02-21T19:33:26.143Z,6.61
2019-02-21T19:36:31.296Z,6.48
2019-02-21T19:39:36.497Z,6.59
2019-02-21T19:42:41.732Z,6.51
2019-02-21T19:45:47.014Z,6.60
2019-02-21T19:48:52.213Z,6.54
2019-02-21T19:51:57.536Z,6.57
2019-02-21T19:55:02.805Z,6.37
2019-02-21T19:58:08.035Z,6.27
2019-02-21T20:01:13.263Z,6.33
2019-02-21T20:04:18.396Z,6.22
2019-02-21T20:07:23.777Z,6.16
2019-02-21T20:10:31.332Z,6.20
2019-02-21T20:13:36.637Z,6.24
2019-02-21T20:16:41.958Z,6.25
2019-02-21T20:19:48.089Z,6.35
2019-02-21T20:22:53.350Z,6.34
2019-02-21T20:25:58.779Z,6.42
2019-02-21T20:29:03.964Z,6.42
2019-02-21T20:32:09.208Z,6.54
2019-02-21T20:35:15.163Z,6.62
2019-02-21T20:38:20.486Z,6.61
2019-02-21T20:41:25.712Z,6.55
2019-02-21T20:44:32.150Z,6.59
2019-02-21T20:47:37.416Z,6.58
2019-02-21T20:50:42.683Z,6.62
2019-02-21T20:53:48.949Z,6.61
2019-02-21T20:56:54.135Z,6.63
2019-02-21T21:00:00.416Z,6.66
2019-02-21T21:03:05.979Z,6.60
2019-02-21T21:06:11.210Z,6.50
2019-02-21T21:09:16.449Z,6.40
2019-02-21T21:12:21.706Z,6.32
2019-02-21T21:15:26.977Z,6.22
2019-02-21T21:18:32.131Z,6.20
2019-02-21T21:21:37.300Z,6.14
2019-02-21T21:24:42.526Z,6.05
2019-02-21T21:27:47.780Z,6.03
2019-02-21T21:30:52.989Z,6.01
2019-02-21T21:33:58.144Z,5.99
2019-02-21T21:37:03.361Z,5.88
2019-02-21T21:40:10.559Z,5.92
2019-02-21T21:43:15.814Z,5.83
2019-02-21T21:46:21.050Z,5.88
2019-02-21T21:49:26.229Z,5.68
2019-02-21T21:52:31.462Z,5.70
2019-02-21T21:55:36.671Z,5.64
2019-02-21T21:58:41.848Z,5.86
2019-02-21T22:01:50.118Z,5.97
2019-02-21T22:04:55.272Z,5.90
2019-02-21T22:08:00.419Z,5.79
2019-02-21T22:11:06.583Z,5.85
2019-02-21T22:14:11.780Z,5.86
2019-02-21T22:17:16.957Z,5.91
2019-02-21T22:20:22.177Z,5.95
2019-02-21T22:23:27.327Z,5.74
2019-02-21T22:26:32.575Z,5.62
2019-02-21T22:29:37.698Z,5.71
2019-02-21T22:32:42.973Z,5.84
2019-02-21T22:35:48.310Z,5.87
2019-02-21T22:38:53.364Z,5.92
2019-02-21T22:41:58.825Z,5.90
2019-02-21T22:45:05.763Z,5.92
2019-02-21T22:48:10.989Z,6.02
2019-02-21T22:51:16.145Z,6.03
2019-02-21T22:54:21.362Z,5.98
2019-02-21T22:57:26.639Z,5.99
2019-02-21T23:01:04.879Z,6.05
2019-02-21T23:04:44.108Z,6.06
2019-02-21T23:08:11.532Z,6.00
2019-02-21T23:11:16.687Z,5.94
2019-02-21T23:14:21.977Z,6.02
2019-02-21T23:17:27.237Z,5.89
2019-02-21T23:20:32.397Z,5.98
2019-02-21T23:23:37.629Z,5.99
2019-02-21T23:26:42.891Z,6.02
2019-02-21T23:29:48.127Z,6.24
2019-02-21T23:32:53.353Z,6.19
2019-02-21T23:35:58.527Z,6.27
2019-02-21T23:39:04.284Z,6.26
2019-02-21T23:42:11.043Z,6.36
2019-02-21T23:45:17.667Z,6.44
2019-02-21T23:48:22.822Z,6.34
2019-02-21T23:51:30.234Z,6.36
2019-02-21T23:54:35.486Z,6.36
2019-02-21T23:57:40.625Z,6.69
